createdAt,value
2016-04-13T04:43:55.194Z,530
2016-04-13T04:44:13.303Z,288
2016-04-13T04:44:31.572Z,286
2016-04-13T04:44:49.869Z,286
2016-04-13T04:45:07.978Z,285
2016-04-13T04:45:26.260Z,285
2016-04-13T04:45:44.527Z,285
2016-04-13T04:46:02.793Z,284
2016-04-13T04:46:21.058Z,284
2016-04-13T04:46:39.358Z,284
2016-04-13T04:46:57.624Z,284
2016-04-13T04:47:15.905Z,284
2016-04-13T04:47:34.188Z,284
2016-04-13T04:47:52.454Z,285
2016-04-13T04:48:10.735Z,284
2016-04-13T04:48:29.017Z,284
2016-04-13T04:48:47.301Z,284
2016-04-13T04:49:05.582Z,285
2016-04-13T04:49:23.848Z,285
2016-04-13T04:49:42.148Z,285
2016-04-13T04:50:00.413Z,284
2016-04-13T04:50:18.694Z,285
2016-04-13T04:50:36.979Z,285
2016-04-13T04:50:55.244Z,285
2016-04-13T04:51:13.526Z,285
2016-04-13T04:51:31.840Z,286
2016-04-13T04:51:50.106Z,286
2016-04-13T04:52:08.387Z,286
2016-04-13T04:52:26.668Z,287
2016-04-13T04:52:44.937Z,287
2016-04-13T04:53:03.202Z,287
2016-04-13T04:53:21.499Z,287
2016-04-13T04:53:39.814Z,288
2016-04-13T04:53:58.079Z,288
2016-04-13T04:54:16.361Z,288
2016-04-13T04:54:34.629Z,288
2016-04-13T04:54:52.926Z,289
2016-04-13T04:55:11.207Z,289
2016-04-13T04:55:29.473Z,290
2016-04-13T04:55:47.757Z,289
2016-04-13T04:56:06.039Z,290
2016-04-13T04:56:24.335Z,290
2016-04-13T04:56:42.588Z,290
2016-04-13T04:57:00.885Z,291
2016-04-13T04:57:19.151Z,291
2016-04-13T04:57:37.435Z,292
2016-04-13T04:57:55.701Z,292
2016-04-13T04:58:13.998Z,292
2016-04-13T04:58:32.282Z,292
2016-04-13T04:58:50.563Z,292
2016-04-13T04:59:08.829Z,293
2016-04-13T04:59:27.126Z,294
2016-04-13T04:59:45.393Z,294
2016-04-13T05:00:03.675Z,293
2016-04-13T05:00:21.971Z,294
2016-04-13T05:00:40.256Z,295
2016-04-13T05:00:58.553Z,295
2016-04-13T05:01:16.834Z,295
2016-04-13T05:01:35.133Z,295
2016-04-13T05:01:53.383Z,296
2016-04-13T05:02:11.664Z,296
2016-04-13T05:02:29.930Z,297
2016-04-13T05:02:48.214Z,297
2016-04-13T05:03:06.495Z,297
2016-04-13T05:03:24.792Z,297
2016-04-13T05:03:43.092Z,298
2016-04-13T05:04:01.357Z,298
2016-04-13T05:04:19.607Z,299
2016-04-13T05:04:37.953Z,299
2016-04-13T05:04:56.063Z,300
2016-04-13T05:05:14.359Z,301
2016-04-13T05:05:32.628Z,301
2016-04-13T05:05:50.925Z,302
2016-04-13T05:06:09.191Z,302
2016-04-13T05:06:27.472Z,303
2016-04-13T05:06:45.756Z,304
2016-04-13T05:07:04.053Z,304
2016-04-13T05:07:22.334Z,304
2016-04-13T05:07:40.617Z,305
2016-04-13T05:07:58.899Z,305
2016-04-13T05:08:17.180Z,306
2016-04-13T05:08:35.480Z,307
2016-04-13T05:08:53.745Z,307
2016-04-13T05:09:11.855Z,308
2016-04-13T05:09:30.136Z,309
2016-04-13T05:09:48.405Z,309
2016-04-13T05:10:06.670Z,309
2016-04-13T05:10:24.967Z,309
2016-04-13T05:10:43.251Z,309
2016-04-13T05:11:01.533Z,310
2016-04-13T05:11:19.830Z,311
2016-04-13T05:11:38.097Z,310
2016-04-13T05:11:56.378Z,310
2016-04-13T05:12:14.660Z,311
2016-04-13T05:12:32.960Z,311
2016-04-13T05:12:51.225Z,312
2016-04-13T05:13:09.506Z,312
2016-04-13T05:13:27.772Z,313
2016-04-13T05:13:46.055Z,313
2016-04-13T05:14:04.337Z,314
2016-04-13T05:14:22.618Z,314
2016-04-13T05:14:40.918Z,315
2016-04-13T05:14:59.183Z,316
2016-04-13T05:15:17.465Z,317
2016-04-13T05:15:35.748Z,318
2016-04-13T05:15:54.013Z,318
2016-04-13T05:16:12.295Z,319
2016-04-13T05:16:30.560Z,320
2016-04-13T05:16:48.860Z,321
2016-04-13T05:17:07.141Z,324
2016-04-13T05:17:25.454Z,325
2016-04-13T05:17:43.691Z,328
2016-04-13T05:18:01.957Z,328
2016-04-13T05:18:20.254Z,329
2016-04-13T05:18:38.538Z,329
2016-04-13T05:18:56.804Z,328
2016-04-13T05:19:15.085Z,327
2016-04-13T05:19:33.369Z,326
2016-04-13T05:19:51.650Z,325
2016-04-13T05:20:09.932Z,324
2016-04-13T05:20:28.213Z,324
2016-04-13T05:20:46.481Z,324
2016-04-13T05:21:04.762Z,324
2016-04-13T05:21:23.012Z,325
2016-04-13T05:21:41.313Z,325
2016-04-13T05:21:59.610Z,325
2016-04-13T05:22:17.875Z,325
2016-04-13T05:22:35.986Z,325
2016-04-13T05:22:54.267Z,326
2016-04-13T05:23:12.548Z,327
2016-04-13T05:23:30.814Z,327
2016-04-13T05:23:48.942Z,328
2016-04-13T05:24:07.207Z,327
2016-04-13T05:24:25.489Z,327
2016-04-13T05:24:43.773Z,327
2016-04-13T05:25:02.054Z,326
2016-04-13T05:25:20.351Z,326
2016-04-13T05:25:38.635Z,327
2016-04-13T05:25:56.916Z,326
2016-04-13T05:26:15.213Z,327
2016-04-13T05:26:33.482Z,327
2016-04-13T05:26:51.841Z,327
2016-04-13T05:27:10.044Z,328
2016-04-13T05:27:28.326Z,328
2016-04-13T05:27:46.609Z,329
2016-04-13T05:28:04.875Z,329
2016-04-13T05:28:23.156Z,330
2016-04-13T05:28:41.424Z,331
2016-04-13T05:28:59.737Z,330
2016-04-13T05:29:18.081Z,329
2016-04-13T05:29:36.365Z,329
2016-04-13T05:29:54.646Z,329
2016-04-13T05:30:12.927Z,330
2016-04-13T05:30:31.209Z,330
2016-04-13T05:30:49.492Z,331
2016-04-13T05:31:07.789Z,332
2016-04-13T05:31:26.054Z,332
2016-04-13T05:31:44.323Z,331
2016-04-13T05:32:02.604Z,331
2016-04-13T05:32:20.917Z,330
2016-04-13T05:32:39.200Z,330
2016-04-13T05:32:57.466Z,329
2016-04-13T05:33:15.747Z,328
2016-04-13T05:33:34.017Z,328
2016-04-13T05:33:52.282Z,328
2016-04-13T05:34:10.563Z,327
2016-04-13T05:34:28.829Z,326
2016-04-13T05:34:47.128Z,327
2016-04-13T05:35:05.409Z,326
2016-04-13T05:35:23.675Z,326
2016-04-13T05:35:41.975Z,326
2016-04-13T05:36:00.240Z,327
2016-04-13T05:36:18.522Z,326
2016-04-13T05:36:36.820Z,326
2016-04-13T05:36:54.774Z,326
2016-04-13T05:37:13.055Z,325
2016-04-13T05:37:31.336Z,325
2016-04-13T05:37:49.495Z,324
2016-04-13T05:38:07.745Z,324
2016-04-13T05:38:26.027Z,324
2016-04-13T05:38:44.294Z,324
2016-04-13T05:39:02.575Z,323
2016-04-13T05:39:20.841Z,322
2016-04-13T05:39:39.126Z,322
2016-04-13T05:39:57.408Z,322
2016-04-13T05:40:15.689Z,322
2016-04-13T05:40:33.988Z,322
2016-04-13T05:40:52.238Z,322
2016-04-13T05:41:10.535Z,322
2016-04-13T05:41:28.816Z,322
2016-04-13T05:41:47.100Z,323
2016-04-13T05:42:05.366Z,323
2016-04-13T05:42:23.631Z,322
2016-04-13T05:42:41.899Z,322
2016-04-13T05:43:00.180Z,322
2016-04-13T05:43:18.461Z,321
2016-04-13T05:43:36.761Z,322
2016-04-13T05:43:55.027Z,322
2016-04-13T05:44:13.308Z,322
2016-04-13T05:44:31.574Z,322
2016-04-13T05:44:49.842Z,321
2016-04-13T05:45:08.124Z,322
2016-04-13T05:45:26.405Z,322
2016-04-13T05:45:44.688Z,321
2016-04-13T05:46:02.969Z,321
2016-04-13T05:46:21.251Z,322
2016-04-13T05:46:39.519Z,321
2016-04-13T05:46:57.801Z,322
2016-04-13T05:47:16.082Z,321
2016-04-13T05:47:34.366Z,321
2016-04-13T05:47:52.647Z,321
2016-04-13T05:48:10.913Z,321
2016-04-13T05:48:29.210Z,321
2016-04-13T05:48:47.477Z,319
2016-04-13T05:49:05.759Z,320
2016-04-13T05:49:24.040Z,319
2016-04-13T05:49:42.324Z,318
2016-04-13T05:50:00.496Z,318
2016-04-13T05:50:18.777Z,317
2016-04-13T05:50:37.062Z,317
2016-04-13T05:50:55.343Z,317
2016-04-13T05:51:13.608Z,316
2016-04-13T05:51:31.890Z,315
2016-04-13T05:51:49.517Z,315
2016-04-13T05:52:07.829Z,315
2016-04-13T05:52:26.095Z,315
2016-04-13T05:52:44.363Z,315
2016-04-13T05:53:02.645Z,315
2016-04-13T05:53:22.567Z,314
2016-04-13T05:53:40.836Z,315
2016-04-13T05:53:59.102Z,315
2016-04-13T05:54:17.383Z,315
2016-04-13T05:54:35.651Z,316
2016-04-13T05:54:53.916Z,315
2016-04-13T05:55:12.198Z,315
2016-04-13T05:55:30.494Z,315
2016-04-13T05:55:48.778Z,316
2016-04-13T05:56:07.262Z,316
2016-04-13T05:56:25.481Z,315
2016-04-13T05:56:43.765Z,315
2016-04-13T05:57:02.046Z,315
2016-04-13T05:57:20.328Z,316
2016-04-13T05:57:38.612Z,315
2016-04-13T05:57:56.877Z,316
2016-04-13T05:58:15.159Z,315
2016-04-13T05:58:33.424Z,315
2016-04-13T05:58:51.709Z,316
2016-04-13T05:59:09.990Z,316
2016-04-13T05:59:28.302Z,316
2016-04-13T05:59:46.601Z,315
2016-04-13T06:00:08.226Z,315
2016-04-13T06:00:27.195Z,315
2016-04-13T06:00:45.370Z,316
2016-04-13T06:01:03.557Z,316
2016-04-13T06:01:21.839Z,316
2016-04-13T06:01:40.092Z,316
2016-04-13T06:01:58.357Z,316
2016-04-13T06:02:16.638Z,315
2016-04-13T06:02:34.922Z,316
2016-04-13T06:02:53.187Z,315
2016-04-13T06:03:10.844Z,315
2016-04-13T06:03:29.109Z,315
2016-04-13T06:03:47.393Z,315
2016-04-13T06:04:05.518Z,315
2016-04-13T06:04:23.784Z,315
2016-04-13T06:04:42.099Z,315
2016-04-13T06:05:00.505Z,315
2016-04-13T06:05:18.786Z,314
2016-04-13T06:05:37.071Z,313
2016-04-13T06:05:55.337Z,314
2016-04-13T06:06:13.618Z,314
2016-04-13T06:06:31.931Z,313
2016-04-13T06:06:50.198Z,314
2016-04-13T06:07:08.480Z,314
2016-04-13T06:07:26.761Z,314
2016-04-13T06:07:45.061Z,314
2016-04-13T06:08:03.373Z,314
2016-04-13T06:08:21.608Z,314
2016-04-13T06:08:39.876Z,314
2016-04-13T06:08:58.173Z,315
2016-04-13T06:09:16.439Z,315
2016-04-13T06:09:34.722Z,314
2016-04-13T06:09:52.988Z,315
2016-04-13T06:10:11.284Z,315
2016-04-13T06:10:29.566Z,315
2016-04-13T06:10:47.850Z,315
2016-04-13T06:11:05.975Z,315
2016-04-13T06:11:24.241Z,315
2016-04-13T06:11:42.556Z,315
2016-04-13T06:12:00.853Z,311
2016-04-13T06:12:19.119Z,315
2016-04-13T06:12:37.418Z,315
2016-04-13T06:12:55.700Z,315
2016-04-13T06:13:13.997Z,315
2016-04-13T06:13:32.278Z,315
2016-04-13T06:13:50.577Z,315
2016-04-13T06:14:08.889Z,315
2016-04-13T06:14:27.186Z,316
2016-04-13T06:14:45.360Z,316
2016-04-13T06:15:03.641Z,317
2016-04-13T06:15:21.938Z,316
2016-04-13T06:15:40.222Z,317
2016-04-13T06:15:58.488Z,317
2016-04-13T06:16:16.816Z,318
2016-04-13T06:16:35.085Z,318
2016-04-13T06:16:53.366Z,318
2016-04-13T06:17:11.632Z,318
2016-04-13T06:17:29.897Z,318
2016-04-13T06:17:48.196Z,319
2016-04-13T06:18:06.446Z,319
2016-04-13T06:18:24.727Z,320
2016-04-13T06:18:43.012Z,320
2016-04-13T06:19:01.293Z,320
2016-04-13T06:19:19.574Z,321
2016-04-13T06:19:37.858Z,321
2016-04-13T06:19:56.124Z,321
2016-04-13T06:20:16.468Z,322
2016-04-13T06:20:34.752Z,323
2016-04-13T06:20:53.018Z,322
2016-04-13T06:21:11.314Z,323
2016-04-13T06:21:29.596Z,323
2016-04-13T06:21:47.910Z,323
2016-04-13T06:22:06.191Z,325
2016-04-13T06:22:24.473Z,324
2016-04-13T06:22:42.758Z,324
2016-04-13T06:23:01.039Z,325
2016-04-13T06:23:19.305Z,325
2016-04-13T06:23:37.588Z,326
2016-04-13T06:23:55.854Z,326
2016-04-13T06:24:14.135Z,326
2016-04-13T06:24:32.416Z,327
2016-04-13T06:24:50.699Z,327
2016-04-13T06:25:09.121Z,327
2016-04-13T06:25:27.387Z,327
2016-04-13T06:25:45.671Z,328
2016-04-13T06:26:03.968Z,328
2016-04-13T06:26:22.312Z,329
2016-04-13T06:26:40.534Z,330
2016-04-13T06:26:58.815Z,330
2016-04-13T06:27:17.080Z,330
2016-04-13T06:27:35.208Z,330
2016-04-13T06:27:53.490Z,330
2016-04-13T06:28:11.755Z,331
2016-04-13T06:28:30.037Z,331
2016-04-13T06:28:48.304Z,331
2016-04-13T06:29:05.929Z,332
2016-04-13T06:29:24.101Z,332
2016-04-13T06:29:42.385Z,333
2016-04-13T06:30:00.667Z,333
2016-04-13T06:30:18.932Z,333
2016-04-13T06:30:37.201Z,334
2016-04-13T06:30:55.482Z,334
2016-04-13T06:31:13.763Z,335
2016-04-13T06:31:32.029Z,335
2016-04-13T06:31:50.312Z,335
2016-04-13T06:32:08.593Z,336
2016-04-13T06:32:26.906Z,336
2016-04-13T06:32:45.190Z,337
2016-04-13T06:33:03.503Z,337
2016-04-13T06:33:21.784Z,337
2016-04-13T06:33:40.083Z,338
2016-04-13T06:33:58.364Z,338
2016-04-13T06:34:16.661Z,339
2016-04-13T06:34:34.930Z,340
2016-04-13T06:34:53.195Z,341
2016-04-13T06:35:11.476Z,341
2016-04-13T06:35:29.758Z,342
2016-04-13T06:35:48.042Z,342
2016-04-13T06:36:06.308Z,342
2016-04-13T06:36:24.589Z,343
2016-04-13T06:36:42.731Z,344
2016-04-13T06:37:00.825Z,344
2016-04-13T06:37:19.122Z,345
2016-04-13T06:37:37.407Z,345
2016-04-13T06:37:55.689Z,346
2016-04-13T06:38:13.970Z,346
2016-04-13T06:38:32.251Z,347
2016-04-13T06:38:50.519Z,347
2016-04-13T06:39:08.816Z,347
2016-04-13T06:39:27.097Z,347
2016-04-13T06:39:45.364Z,348
2016-04-13T06:40:03.646Z,349
2016-04-13T06:40:21.958Z,350
2016-04-13T06:40:40.243Z,350
2016-04-13T06:40:58.509Z,352
2016-04-13T06:41:16.806Z,353
2016-04-13T06:41:35.087Z,353
2016-04-13T06:41:53.370Z,354
2016-04-13T06:42:11.636Z,355
2016-04-13T06:42:29.917Z,357
2016-04-13T06:42:48.186Z,359
2016-04-13T06:43:06.483Z,357
2016-04-13T06:43:24.780Z,358
2016-04-13T06:43:43.079Z,358
2016-04-13T06:44:01.344Z,358
2016-04-13T06:44:19.641Z,358
2016-04-13T06:44:37.925Z,357
2016-04-13T06:44:56.238Z,357
2016-04-13T06:45:14.503Z,360
2016-04-13T06:45:32.785Z,360
2016-04-13T06:45:51.053Z,360
2016-04-13T06:46:09.319Z,361
2016-04-13T06:46:27.600Z,361
2016-04-13T06:46:45.884Z,361
2016-04-13T06:47:04.166Z,363
2016-04-13T06:47:22.447Z,364
2016-04-13T06:47:40.730Z,365
2016-04-13T06:47:59.011Z,365
2016-04-13T06:48:17.277Z,365
2016-04-13T06:48:35.577Z,365
2016-04-13T06:48:53.858Z,364
2016-04-13T06:49:12.139Z,366
2016-04-13T06:49:30.405Z,366
2016-04-13T06:49:48.688Z,366
2016-04-13T06:50:06.970Z,368
2016-04-13T06:50:25.235Z,368
2016-04-13T06:50:43.520Z,370
2016-04-13T06:51:01.786Z,372
2016-04-13T06:51:20.083Z,372
2016-04-13T06:51:38.366Z,373
2016-04-13T06:51:56.491Z,374
2016-04-13T06:52:14.772Z,374
2016-04-13T06:52:33.022Z,375
2016-04-13T06:52:51.291Z,373
2016-04-13T06:53:09.572Z,372
2016-04-13T06:53:27.838Z,371
2016-04-13T06:53:46.137Z,371
2016-04-13T06:54:04.387Z,368
2016-04-13T06:54:22.652Z,366
2016-04-13T06:54:40.827Z,364
2016-04-13T06:54:59.093Z,362
2016-04-13T06:55:17.374Z,362
2016-04-13T06:55:35.643Z,361
2016-04-13T06:55:53.924Z,362
2016-04-13T06:56:12.190Z,363
2016-04-13T06:56:30.487Z,363
2016-04-13T06:56:48.818Z,363
2016-04-13T06:57:07.130Z,363
2016-04-13T06:57:25.411Z,363
2016-04-13T06:57:43.757Z,361
2016-04-13T06:58:02.007Z,360
2016-04-13T06:58:20.288Z,360
2016-04-13T06:58:38.573Z,361
2016-04-13T06:58:56.838Z,361
2016-04-13T06:59:15.120Z,362
2016-04-13T06:59:33.385Z,363
2016-04-13T06:59:51.669Z,363
2016-04-13T07:00:09.935Z,364
2016-04-13T07:00:28.232Z,363
2016-04-13T07:00:46.500Z,361
2016-04-13T07:01:04.781Z,364
2016-04-13T07:01:23.046Z,364
2016-04-13T07:01:41.315Z,363
2016-04-13T07:01:59.596Z,362
2016-04-13T07:02:17.878Z,362
2016-04-13T07:02:36.146Z,361
2016-04-13T07:02:54.443Z,362
2016-04-13T07:03:12.709Z,360
2016-04-13T07:03:31.006Z,359
2016-04-13T07:03:49.273Z,358
2016-04-13T07:04:07.398Z,358
2016-04-13T07:04:25.711Z,359
2016-04-13T07:04:43.948Z,358
2016-04-13T07:05:02.214Z,359
2016-04-13T07:05:20.495Z,358
2016-04-13T07:05:38.779Z,358
2016-04-13T07:05:57.060Z,359
2016-04-13T07:06:15.326Z,361
2016-04-13T07:06:33.592Z,362
2016-04-13T07:06:51.875Z,362
2016-04-13T07:07:09.875Z,365
2016-04-13T07:07:28.156Z,367
2016-04-13T07:07:46.440Z,368
2016-04-13T07:08:04.722Z,370
2016-04-13T07:08:22.847Z,370
2016-04-13T07:08:41.130Z,370
2016-04-13T07:08:59.396Z,370
2016-04-13T07:09:17.677Z,371
2016-04-13T07:09:35.802Z,371
2016-04-13T07:09:53.945Z,371
2016-04-13T07:10:12.227Z,372
2016-04-13T07:10:30.524Z,373
2016-04-13T07:10:48.792Z,373
2016-04-13T07:11:06.933Z,374
2016-04-13T07:11:25.214Z,374
2016-04-13T07:11:43.482Z,373
2016-04-13T07:12:01.857Z,373
2016-04-13T07:12:20.122Z,373
2016-04-13T07:12:38.407Z,373
2016-04-13T07:12:56.735Z,373
2016-04-13T07:13:15.000Z,372
2016-04-13T07:13:32.641Z,372
2016-04-13T07:13:50.910Z,372
2016-04-13T07:14:09.175Z,372
2016-04-13T07:14:27.441Z,372
2016-04-13T07:14:45.725Z,371
2016-04-13T07:15:04.006Z,371
2016-04-13T07:15:22.288Z,370
2016-04-13T07:15:40.572Z,370
2016-04-13T07:15:58.869Z,370
2016-04-13T07:16:17.150Z,370
2016-04-13T07:16:35.431Z,370
2016-04-13T07:16:53.714Z,370
2016-04-13T07:17:11.996Z,370
2016-04-13T07:17:30.261Z,370
2016-04-13T07:17:48.561Z,369
2016-04-13T07:18:06.842Z,369
2016-04-13T07:18:25.139Z,369
2016-04-13T07:18:43.408Z,369
2016-04-13T07:19:01.674Z,369
2016-04-13T07:19:19.970Z,369
2016-04-13T07:19:38.254Z,369
2016-04-13T07:19:56.504Z,369
2016-04-13T07:20:14.801Z,368
2016-04-13T07:20:33.066Z,368
2016-04-13T07:20:51.367Z,368
2016-04-13T07:21:09.664Z,368
2016-04-13T07:21:27.930Z,368
2016-04-13T07:21:46.228Z,368
2016-04-13T07:22:04.572Z,368
2016-04-13T07:22:22.775Z,368
2016-04-13T07:22:41.075Z,368
2016-04-13T07:22:59.341Z,368
2016-04-13T07:23:17.622Z,367
2016-04-13T07:23:35.888Z,367
2016-04-13T07:23:54.156Z,367
2016-04-13T07:24:12.469Z,367
2016-04-13T07:24:30.766Z,367
2016-04-13T07:24:49.018Z,367
2016-04-13T07:25:07.283Z,367
2016-04-13T07:25:25.565Z,367
2016-04-13T07:25:43.864Z,368
2016-04-13T07:26:02.130Z,367
2016-04-13T07:26:20.411Z,368
2016-04-13T07:26:38.679Z,368
2016-04-13T07:26:56.945Z,368
2016-04-13T07:27:15.226Z,367
2016-04-13T07:27:33.351Z,367
2016-04-13T07:27:51.619Z,367
2016-04-13T07:28:09.916Z,367
2016-04-13T07:28:28.182Z,367
2016-04-13T07:28:46.466Z,367
2016-04-13T07:29:04.747Z,367
2016-04-13T07:29:23.029Z,368
2016-04-13T07:29:41.312Z,368
2016-04-13T07:29:59.593Z,368
2016-04-13T07:30:17.859Z,369
2016-04-13T07:30:36.140Z,368
2016-04-13T07:30:54.315Z,369
2016-04-13T07:31:12.612Z,370
2016-04-13T07:31:30.893Z,370
2016-04-13T07:31:49.176Z,371
2016-04-13T07:32:07.473Z,372
2016-04-13T07:32:25.754Z,372
2016-04-13T07:32:44.257Z,373
2016-04-13T07:33:02.539Z,373
2016-04-13T07:33:20.804Z,373
2016-04-13T07:33:39.089Z,374
2016-04-13T07:33:57.370Z,374
2016-04-13T07:34:15.682Z,374
2016-04-13T07:34:33.964Z,374
2016-04-13T07:34:52.262Z,374
2016-04-13T07:35:10.528Z,374
2016-04-13T07:35:28.825Z,375
2016-04-13T07:35:47.110Z,374
2016-04-13T07:36:05.376Z,375
2016-04-13T07:36:23.673Z,375
2016-04-13T07:36:41.940Z,376
2016-04-13T07:36:59.940Z,376
2016-04-13T07:37:18.190Z,376
2016-04-13T07:37:36.475Z,376
2016-04-13T07:37:54.740Z,376
2016-04-13T07:38:13.021Z,375
2016-04-13T07:38:31.287Z,375
2016-04-13T07:38:49.571Z,375
2016-04-13T07:39:07.853Z,375
2016-04-13T07:39:26.134Z,374
2016-04-13T07:39:44.401Z,374
2016-04-13T07:40:02.526Z,373
2016-04-13T07:40:20.839Z,372
2016-04-13T07:40:39.123Z,372
2016-04-13T07:40:57.420Z,371
2016-04-13T07:41:15.686Z,371
2016-04-13T07:41:33.967Z,371
2016-04-13T07:41:52.236Z,370
2016-04-13T07:42:10.501Z,370
2016-04-13T07:42:28.767Z,371
2016-04-13T07:42:47.034Z,370
2016-04-13T07:43:05.316Z,370
2016-04-13T07:43:23.613Z,369
2016-04-13T07:43:41.881Z,369
2016-04-13T07:44:00.162Z,369
2016-04-13T07:44:18.428Z,368
2016-04-13T07:44:36.696Z,368
2016-04-13T07:44:54.977Z,368
2016-04-13T07:45:13.243Z,368
2016-04-13T07:45:31.524Z,368
2016-04-13T07:45:49.824Z,368
2016-04-13T07:46:08.089Z,368
2016-04-13T07:46:26.355Z,368
2016-04-13T07:46:44.608Z,368
2016-04-13T07:47:02.889Z,368
2016-04-13T07:47:21.155Z,368
2016-04-13T07:47:39.438Z,368
2016-04-13T07:47:57.735Z,367
2016-04-13T07:48:16.032Z,368
2016-04-13T07:48:34.313Z,368
2016-04-13T07:48:52.582Z,368
2016-04-13T07:49:10.879Z,367
2016-04-13T07:49:29.144Z,368
2016-04-13T07:49:47.444Z,368
2016-04-13T07:50:05.710Z,368
2016-04-13T07:50:23.975Z,368
2016-04-13T07:50:42.244Z,368
2016-04-13T07:51:00.525Z,368
2016-04-13T07:51:18.791Z,368
2016-04-13T07:51:37.075Z,369
2016-04-13T07:51:55.341Z,369
2016-04-13T07:52:13.622Z,369
2016-04-13T07:52:31.888Z,369
2016-04-13T07:52:50.171Z,369
2016-04-13T07:53:08.452Z,369
2016-04-13T07:53:26.718Z,369
2016-04-13T07:53:45.002Z,369
2016-04-13T07:54:03.268Z,369
2016-04-13T07:54:21.564Z,369
2016-04-13T07:54:39.832Z,369
2016-04-13T07:54:58.207Z,369
2016-04-13T07:55:16.473Z,369
2016-04-13T07:55:34.738Z,369
2016-04-13T07:55:53.023Z,370
2016-04-13T07:56:11.288Z,369
2016-04-13T07:56:29.585Z,369
2016-04-13T07:56:47.776Z,369
2016-04-13T07:57:06.041Z,370
2016-04-13T07:57:24.338Z,370
2016-04-13T07:57:42.637Z,370
2016-04-13T07:58:00.903Z,370
2016-04-13T07:58:19.153Z,370
2016-04-13T07:58:37.438Z,370
2016-04-13T07:58:55.703Z,370
2016-04-13T07:59:14.000Z,370
2016-04-13T07:59:32.282Z,370
2016-04-13T07:59:50.565Z,370
2016-04-13T08:00:08.830Z,369
2016-04-13T08:00:27.159Z,369
2016-04-13T08:00:45.458Z,370
2016-04-13T08:01:03.724Z,370
2016-04-13T08:01:22.005Z,371
2016-04-13T08:01:40.290Z,371
2016-04-13T08:01:58.571Z,371
2016-04-13T08:02:16.852Z,371
2016-04-13T08:02:35.102Z,372
2016-04-13T08:02:53.401Z,372
2016-04-13T08:03:11.682Z,373
2016-04-13T08:03:29.948Z,373
2016-04-13T08:03:48.216Z,373
2016-04-13T08:04:06.560Z,374
2016-04-13T08:04:24.841Z,374
2016-04-13T08:04:43.140Z,374
2016-04-13T08:05:01.406Z,374
2016-04-13T08:05:19.750Z,374
2016-04-13T08:05:38.018Z,374
2016-04-13T08:05:56.315Z,375
2016-04-13T08:06:14.581Z,374
2016-04-13T08:06:32.862Z,374
2016-04-13T08:06:51.146Z,375
2016-04-13T08:07:09.474Z,375
2016-04-13T08:07:27.568Z,376
2016-04-13T08:07:45.836Z,377
2016-04-13T08:08:04.133Z,377
2016-04-13T08:08:22.263Z,379
2016-04-13T08:08:40.547Z,379
2016-04-13T08:08:58.672Z,380
2016-04-13T08:09:16.953Z,380
2016-04-13T08:09:35.219Z,381
2016-04-13T08:09:53.502Z,381
2016-04-13T08:10:11.768Z,381
2016-04-13T08:10:30.018Z,380
2016-04-13T08:10:48.317Z,380
2016-04-13T08:11:06.599Z,379
2016-04-13T08:11:24.271Z,379
2016-04-13T08:11:42.555Z,379
2016-04-13T08:12:00.820Z,378
2016-04-13T08:12:19.102Z,379
2016-04-13T08:12:37.385Z,379
2016-04-13T08:12:55.635Z,380
2016-04-13T08:13:13.916Z,382
2016-04-13T08:13:32.229Z,383
2016-04-13T08:13:50.498Z,384
2016-04-13T08:14:08.780Z,384
2016-04-13T08:14:27.061Z,385
2016-04-13T08:14:45.344Z,385
2016-04-13T08:15:03.610Z,385
2016-04-13T08:15:21.922Z,385
2016-04-13T08:15:40.222Z,385
2016-04-13T08:15:58.503Z,385
2016-04-13T08:16:16.785Z,384
2016-04-13T08:16:35.050Z,383
2016-04-13T08:16:53.350Z,382
2016-04-13T08:17:11.631Z,382
2016-04-13T08:17:29.897Z,381
2016-04-13T08:17:48.008Z,380
2016-04-13T08:18:06.321Z,380
2016-04-13T08:18:24.602Z,380
2016-04-13T08:18:42.871Z,380
2016-04-13T08:19:01.152Z,380
2016-04-13T08:19:19.418Z,381
2016-04-13T08:19:37.717Z,382
2016-04-13T08:19:55.999Z,382
2016-04-13T08:20:14.280Z,383
2016-04-13T08:20:32.546Z,382
2016-04-13T08:20:50.735Z,383
2016-04-13T08:21:09.016Z,383
2016-04-13T08:21:27.298Z,383
2016-04-13T08:21:45.582Z,383
2016-04-13T08:22:03.832Z,382
2016-04-13T08:22:21.972Z,383
2016-04-13T08:22:40.241Z,382
2016-04-13T08:22:58.554Z,381
2016-04-13T08:23:16.819Z,381
2016-04-13T08:23:35.085Z,380
2016-04-13T08:23:53.369Z,381
2016-04-13T08:24:11.635Z,381
2016-04-13T08:24:29.932Z,381
2016-04-13T08:24:48.216Z,381
2016-04-13T08:25:06.497Z,380
2016-04-13T08:25:24.747Z,381
2016-04-13T08:25:43.030Z,381
2016-04-13T08:26:01.312Z,381
2016-04-13T08:26:19.593Z,381
2016-04-13T08:26:37.877Z,382
2016-04-13T08:26:56.143Z,383
2016-04-13T08:27:14.283Z,384
2016-04-13T08:27:32.549Z,385
2016-04-13T08:27:50.832Z,386
2016-04-13T08:28:09.113Z,385
2016-04-13T08:28:27.442Z,384
2016-04-13T08:28:45.710Z,383
2016-04-13T08:29:04.054Z,382
2016-04-13T08:29:22.335Z,377
2016-04-13T08:29:40.494Z,356
2016-04-13T08:29:58.807Z,356
2016-04-13T08:30:17.073Z,377
2016-04-13T08:30:35.385Z,371
2016-04-13T08:30:53.668Z,370
2016-04-13T08:31:11.950Z,375
2016-04-13T08:31:30.278Z,375
2016-04-13T08:31:48.578Z,368
2016-04-13T08:32:07.421Z,376
2016-04-13T08:32:25.765Z,371
2016-04-13T08:32:44.064Z,378
2016-04-13T08:33:01.751Z,378
2016-04-13T08:33:20.126Z,379
2016-04-13T08:33:38.458Z,380
2016-04-13T08:33:56.723Z,382
2016-04-13T08:34:15.036Z,382
2016-04-13T08:34:33.317Z,382
2016-04-13T08:34:51.586Z,382
2016-04-13T08:35:09.882Z,382
2016-04-13T08:35:28.023Z,382
2016-04-13T08:35:46.291Z,382
2016-04-13T08:36:04.556Z,381
2016-04-13T08:36:22.838Z,380
2016-04-13T08:36:41.138Z,378
2016-04-13T08:36:59.404Z,378
2016-04-13T08:37:17.607Z,378
2016-04-13T08:37:35.654Z,378
2016-04-13T08:37:53.922Z,379
2016-04-13T08:38:12.219Z,379
2016-04-13T08:38:30.328Z,378
2016-04-13T08:38:48.612Z,377
2016-04-13T08:39:06.893Z,378
2016-04-13T08:39:25.175Z,377
2016-04-13T08:39:43.458Z,377
2016-04-13T08:40:01.724Z,378
2016-04-13T08:40:19.989Z,378
2016-04-13T08:40:38.180Z,377
2016-04-13T08:40:56.445Z,376
2016-04-13T08:41:14.727Z,376
2016-04-13T08:41:33.008Z,376
2016-04-13T08:41:51.292Z,376
2016-04-13T08:42:09.558Z,374
2016-04-13T08:42:27.823Z,372
2016-04-13T08:42:46.107Z,367
2016-04-13T08:43:04.403Z,352
2016-04-13T08:43:22.653Z,356
2016-04-13T08:43:40.938Z,375
2016-04-13T08:43:59.203Z,375
2016-04-13T08:44:17.485Z,375
2016-04-13T08:44:35.766Z,375
2016-04-13T08:44:54.033Z,375
2016-04-13T08:45:12.299Z,375
2016-04-13T08:45:30.612Z,373
2016-04-13T08:45:48.896Z,375
2016-04-13T08:46:07.161Z,376
2016-04-13T08:46:25.427Z,375
2016-04-13T08:46:43.711Z,376
2016-04-13T08:47:02.008Z,375
2016-04-13T08:47:20.305Z,376
2016-04-13T08:47:38.574Z,379
2016-04-13T08:47:56.855Z,380
2016-04-13T08:48:15.152Z,380
2016-04-13T08:48:33.433Z,382
2016-04-13T08:48:51.702Z,383
2016-04-13T08:49:09.999Z,384
2016-04-13T08:49:28.264Z,385
2016-04-13T08:49:46.548Z,384
2016-04-13T08:50:04.814Z,384
2016-04-13T08:50:23.111Z,384
2016-04-13T08:50:41.410Z,384
2016-04-13T08:50:59.675Z,385
2016-04-13T08:51:17.957Z,385
2016-04-13T08:51:36.222Z,385
2016-04-13T08:51:54.491Z,385
2016-04-13T08:52:12.991Z,385
2016-04-13T08:52:31.225Z,385
2016-04-13T08:52:49.540Z,387
2016-04-13T08:53:07.837Z,387
2016-04-13T08:53:26.102Z,386
2016-04-13T08:53:44.387Z,387
2016-04-13T08:54:02.527Z,388
2016-04-13T08:54:20.824Z,388
2016-04-13T08:54:39.108Z,389
2016-04-13T08:54:57.405Z,390
2016-04-13T08:55:15.702Z,391
2016-04-13T08:55:33.983Z,391